Terminal Aerodrome Forecast
Issued by NWS

Current Version | Previous Version | Text Only | Print | Product List | Glossary On
Versions: 1 2 3 4 5 6 7 8 9 10 11 12
000
FTUS45 KTFX 210520
TAFBZN
TAF
KBZN 210520Z 2106/2212 VRB04KT P6SM SKC
     FM212100 29015G25KT P6SM FEW040 SCT250
     FM220500 33009KT P6SM FEW030 SCT250=

USA.gov is the U.S. government's official web portal to all federal, state and local government web resources and services.